Time;durP1;ratioP1;P1;durP2;ratioP2;P2;SDS_P1;SDS_P2;PMS_P1;PMS_P2;Temp;Humidity;BMP_temperature;BMP_pressure;BME280_temperature;BME280_humidity;BME280_pressure;Samples;Min_cycle;Max_cycle;Signal;HPM_P1;HPM_P2
2022/08/17 00:01:42;;;;;;;;;5.00;5.00;;;;;27.72;53.16;100477.97;146602;581;45913;-70
2022/08/17 00:04:36;;;;;;;;;6.50;6.50;;;;;27.77;53.23;100482.31;146606;652;46010;-70
2022/08/17 00:07:38;;;;;;;;;7.75;7.00;;;;;27.81;53.01;100488.44;146603;608;45912;-70
2022/08/17 00:10:44;;;;;;;;;8.75;8.75;;;;;27.82;52.43;100480.44;146606;636;45048;-70
2022/08/17 00:13:45;;;;;;;;;7.75;7.75;;;;;27.80;51.83;100479.56;146603;579;46012;-70
2022/08/17 00:16:42;;;;;;;;;8.75;8.75;;;;;27.62;52.42;100480.84;146608;647;45021;-70
2022/08/17 00:19:55;;;;;;;;;9.00;8.50;;;;;27.39;53.35;100481.37;146604;631;45912;-70
2022/08/17 00:22:51;;;;;;;;;8.75;8.50;;;;;27.15;53.22;100484.53;146607;602;45021;-70
2022/08/17 00:26:05;;;;;;;;;5.75;5.75;;;;;26.00;53.57;100324.53;146604;563;45913;-71
2022/08/17 00:29:09;;;;;;;;;8.00;7.50;;;;;26.81;54.01;100479.00;146608;662;45048;-70
2022/08/17 00:32:09;;;;;;;;;7.00;7.00;;;;;26.81;53.98;100481.66;146604;688;45913;-70
2022/08/17 00:35:04;;;;;;;;;10.00;8.50;;;;;26.83;54.48;100480.72;146607;569;46010;-72
2022/08/17 00:38:05;;;;;;;;;8.75;8.25;;;;;26.89;53.36;100472.62;146604;668;45867;-71
2022/08/17 00:41:05;;;;;;;;;10.00;8.25;;;;;26.98;54.21;100483.97;146605;566;45027;-70
2022/08/17 00:44:02;;;;;;;;;10.75;9.50;;;;;27.09;53.63;100487.31;146603;569;45912;-71
2022/08/17 00:47:06;;;;;;;;;9.25;7.75;;;;;27.16;53.11;100481.84;146607;719;45031;-70
2022/08/17 00:50:06;;;;;;;;;7.00;7.00;;;;;27.24;53.06;100486.16;146602;575;45912;-70
2022/08/17 00:53:11;;;;;;;;;10.00;7.75;;;;;27.21;52.96;100491.53;146605;570;45021;-71
2022/08/17 00:56:15;;;;;;;;;8.75;7.25;;;;;27.16;53.04;100486.28;146603;577;45912;-71
2022/08/17 00:59:14;;;;;;;;;8.00;7.00;;;;;27.08;52.65;100494.41;146606;608;45020;-69
2022/08/17 01:02:21;;;;;;;;;8.25;7.25;;;;;27.00;52.81;100491.03;146602;569;45913;-69
2022/08/17 01:05:33;;;;;;;;;11.50;9.50;;;;;26.91;52.70;100504.50;146607;625;45020;-69
2022/08/17 01:08:33;;;;;;;;;7.50;6.75;;;;;26.83;53.28;100499.34;146602;719;45913;-69
2022/08/17 01:11:39;;;;;;;;;8.50;7.75;;;;;26.73;53.11;100503.09;146603;597;46010;-70
2022/08/17 01:14:34;;;;;;;;;9.75;9.00;;;;;26.65;53.83;100494.37;146602;634;46015;-69
2022/08/17 01:17:34;;;;;;;;;7.75;7.75;;;;;26.59;53.88;100486.50;146606;630;46010;-69
2022/08/17 01:20:26;;;;;;;;;9.25;8.00;;;;;26.50;54.16;100495.53;146603;682;45911;-70
2022/08/17 01:23:27;;;;;;;;;10.25;9.00;;;;;26.37;54.84;100505.47;146605;639;46010;-68
2022/08/17 01:26:28;;;;;;;;;9.00;8.50;;;;;26.22;55.26;100490.66;146602;598;46012;-68
2022/08/17 01:29:41;;;;;;;;;;;;;;;;;;;;;
2022/08/17 01:32:37;;;;;;;;;8.00;8.00;;;;;26.06;55.22;100505.09;146603;617;45910;-68
2022/08/17 01:35:34;;;;;;;;;7.75;7.50;;;;;26.05;55.59;100503.34;146606;569;46014;-68
2022/08/17 01:38:32;;;;;;;;;9.00;8.00;;;;;26.02;55.13;100508.72;146604;592;45912;-68
2022/08/17 01:41:28;;;;;;;;;8.00;8.00;;;;;26.01;55.77;100499.88;146603;570;46020;-67
2022/08/17 01:44:27;;;;;;;;;8.25;7.00;;;;;25.98;56.25;100493.69;146603;627;45912;-69
2022/08/17 01:47:19;;;;;;;;;8.00;6.67;;;;;25.96;56.21;100491.09;146607;696;45028;-68
2022/08/17 01:50:25;;;;;;;;;8.00;7.00;;;;;25.97;55.50;100487.50;146600;563;47014;-69
2022/08/17 01:53:33;;;;;;;;;9.25;9.00;;;;;25.98;55.88;100480.41;146608;633;45021;-68
2022/08/17 01:56:37;;;;;;;;;;;;;;;;;;;;;
2022/08/17 01:59:40;;;;;;;;;8.75;7.25;;;;;26.06;55.65;100486.50;146606;622;46014;-69
2022/08/17 02:02:36;;;;;;;;;8.25;6.75;;;;;26.07;56.24;100485.59;146602;625;45913;-68
2022/08/17 02:05:28;;;;;;;;;8.75;7.50;;;;;26.06;56.71;100481.19;146607;570;45020;-67
2022/08/17 02:08:31;;;;;;;;;8.00;7.50;;;;;26.03;56.73;100471.47;146600;578;47912;-68
2022/08/17 02:11:28;;;;;;;;;11.25;10.75;;;;;25.99;57.00;100479.53;146608;633;45020;-67
2022/08/17 02:14:22;;;;;;;;;9.50;8.75;;;;;25.97;56.77;100473.34;146603;638;45912;-67
2022/08/17 02:17:28;;;;;;;;;;;;;;;;;;;;;
2022/08/17 02:20:44;;;;;;;;;10.50;9.50;;;;;25.09;55.70;100311.84;146603;600;45911;-67
2022/08/17 02:23:56;;;;;;;;;9.00;9.00;;;;;26.11;56.81;100487.31;146606;676;46014;-69
2022/08/17 02:26:53;;;;;;;;;7.75;7.75;;;;;26.06;57.59;100488.28;146602;577;46012;-68
2022/08/17 02:29:53;;;;;;;;;10.50;8.75;;;;;25.90;57.06;100483.22;146607;683;45021;-68
2022/08/17 02:32:47;;;;;;;;;9.50;9.50;;;;;25.80;57.83;100476.25;146603;638;45913;-68
2022/08/17 02:35:51;;;;;;;;;10.25;10.25;;;;;25.73;58.70;100480.78;146604;596;46010;-68
2022/08/17 02:38:49;;;;;;;;;11.25;8.75;;;;;25.64;58.50;100485.31;146602;628;46012;-68
2022/08/17 02:41:47;;;;;;;;;13.00;10.50;;;;;25.52;57.90;100479.31;146604;624;45020;-65
2022/08/17 02:44:59;;;;;;;;;9.25;8.00;;;;;25.49;58.31;100470.53;146605;687;45915;-67
2022/08/17 02:48:00;;;;;;;;;8.00;8.00;;;;;25.42;59.88;100468.81;146607;632;45021;-67
2022/08/17 02:51:11;;;;;;;;;9.75;9.25;;;;;24.44;58.80;100311.81;146602;611;45867;-68
2022/08/17 02:54:18;;;;;;;;;9.00;9.00;;;;;25.39;59.59;100469.78;146607;597;45021;-66
2022/08/17 02:57:23;;;;;;;;;10.25;7.00;;;;;25.46;60.09;100473.22;146600;589;46010;-66
2022/08/17 03:00:43;;;;;;;;;7.75;7.75;;;;;25.49;59.59;100473.19;146606;692;45030;-68
2022/08/17 03:03:40;;;;;;;;;8.25;8.25;;;;;25.54;59.23;100473.97;146603;576;45913;-67
2022/08/17 03:06:46;;;;;;;;;;;;;;;;;;;;;
2022/08/17 03:09:49;;;;;;;;;10.75;9.75;;;;;25.71;59.25;100482.56;146626;606;45913;-66
2022/08/17 03:12:55;;;;;;;;;7.75;7.25;;;;;25.73;59.12;100479.88;146627;647;45920;-66
2022/08/17 03:15:51;;;;;;;;;9.00;9.00;;;;;25.66;59.17;100481.75;146632;578;44913;-67
2022/08/17 03:18:51;;;;;;;;;9.25;8.00;;;;;25.58;58.99;100481.88;146633;573;44020;-68
2022/08/17 03:22:04;;;;;;;;;10.00;10.00;;;;;24.52;59.07;100312.63;146629;671;45012;-67
2022/08/17 03:25:00;;;;;;;;;12.00;10.00;;;;;25.49;60.28;100483.78;146633;603;44020;-66
2022/08/17 03:27:56;;;;;;;;;8.75;8.75;;;;;25.47;59.92;100482.94;146630;578;45011;-68
2022/08/17 03:31:05;;;;;;;;;;;;;;;;;;;;;
2022/08/17 03:34:10;;;;;;;;;8.25;7.50;;;;;25.43;59.59;100476.78;146629;591;45910;-68
2022/08/17 03:37:10;;;;;;;;;10.00;7.75;;;;;25.43;59.55;100478.56;146633;662;44044;-68
2022/08/17 03:40:14;;;;;;;;;9.75;8.75;;;;;25.42;59.78;100480.34;146628;699;45912;-69
2022/08/17 03:43:46;;;;;;;;;;;;;;;;;;;;;
2022/08/17 03:57:14;;;;;;;;;10.00;8.00;;;;;25.28;60.39;100491.13;146626;569;46914;-70
2022/08/17 04:00:23;;;;;;;;;11.25;7.00;;;;;25.22;60.17;100488.56;146626;574;45913;-70
2022/08/17 04:03:28;;;;;;;;;8.00;8.00;;;;;25.18;60.23;100494.81;146634;588;44020;-68
2022/08/17 04:06:24;;;;;;;;;10.25;8.00;;;;;25.15;60.33;100494.84;146625;570;45913;-67
2022/08/17 04:09:20;;;;;;;;;7.50;7.25;;;;;25.14;59.69;100498.41;146606;679;47020;-68
2022/08/17 04:12:22;;;;;;;;;12.00;9.50;;;;;25.15;59.30;100502.81;146600;658;47012;-68
2022/08/17 04:15:32;;;;;;;;;8.00;7.67;;;;;25.17;59.85;100503.66;146603;671;46014;-68
2022/08/17 04:18:31;;;;;;;;;7.75;6.25;;;;;25.18;59.50;100497.47;146600;602;46034;-69
2022/08/17 04:21:29;;;;;;;;;6.75;5.50;;;;;25.18;59.03;100502.75;146608;565;45030;-70
2022/08/17 04:24:42;;;;;;;;;8.75;8.75;;;;;25.20;59.92;100500.94;146603;639;46012;-70
2022/08/17 04:27:34;;;;;;;;;8.00;6.25;;;;;25.23;59.58;100508.88;146609;599;45020;-71
2022/08/17 04:30:31;;;;;;;;;8.00;8.00;;;;;25.27;60.09;100507.09;146602;704;45911;-71
2022/08/17 04:33:44;;;;;;;;;10.50;9.00;;;;;25.33;59.09;100512.31;146607;577;45020;-71
2022/08/17 04:36:42;;;;;;;;;7.50;6.25;;;;;25.44;59.70;100510.38;146603;681;45912;-69
2022/08/17 04:42:05;;;;;;;;;12.50;10.75;;;;;25.59;59.07;100514.63;146606;605;45020;-70
2022/08/17 04:43:43;;;;;;;;;11.00;9.00;;;;;25.83;58.06;100523.19;146602;695;45910;-70
2022/08/17 04:46:58;;;;;;;;;6.25;4.50;;;;;25.15;57.25;100356.00;146604;579;45048;-69
2022/08/17 04:49:55;;;;;;;;;10.67;6.67;;;;;26.40;57.11;100517.84;146603;656;45910;-69
2022/08/17 04:53:12;;;;;;;;;;;;;;;;;;;;;
2022/08/17 04:56:33;;;;;;;;;10.25;9.75;;;;;26.15;56.28;100380.06;146603;706;45910;-69
2022/08/17 04:59:34;;;;;;;;;10.75;9.25;;;;;27.25;56.83;100538.47;146606;688;45021;-70
2022/08/17 05:02:35;;;;;;;;;9.50;9.50;;;;;27.50;55.40;100534.38;146600;569;46012;-70
2022/08/17 05:05:52;;;;;;;;;10.75;10.00;;;;;27.71;54.63;100529.50;146606;648;45021;-70
2022/08/17 05:08:46;;;;;;;;;7.00;5.75;;;;;27.84;53.70;100521.22;146603;572;45912;-70
2022/08/17 05:11:48;;;;;;;;;9.67;7.67;;;;;27.86;53.75;100524.72;146610;578;46014;-70
2022/08/17 05:14:44;;;;;;;;;7.25;7.00;;;;;27.92;54.12;100529.03;146602;624;46012;-70
2022/08/17 05:17:49;;;;;;;;;10.25;9.50;;;;;28.10;54.28;100522.41;146605;685;45020;-70
2022/08/17 05:20:44;;;;;;;;;7.00;7.00;;;;;28.34;54.01;100523.56;146604;573;45912;-70
2022/08/17 05:23:47;;;;;;;;;10.50;8.50;;;;;28.57;53.41;100523.03;146607;626;45020;-70
2022/08/17 05:26:41;;;;;;;;;9.33;9.00;;;;;28.81;53.19;100526.81;146600;575;46014;-71
2022/08/17 05:29:38;;;;;;;;;9.25;8.75;;;;;29.00;52.86;100521.84;146608;625;45021;-69
2022/08/17 05:32:40;;;;;;;;;8.75;8.75;;;;;29.19;52.12;100522.22;146603;721;45912;-70
2022/08/17 05:35:49;;;;;;;;;7.50;6.50;;;;;29.32;51.66;100515.63;146607;689;45021;-69
2022/08/17 05:38:43;;;;;;;;;9.00;8.50;;;;;29.43;51.39;100518.84;146603;658;45912;-73
2022/08/17 05:41:38;;;;;;;;;7.75;7.75;;;;;29.56;50.96;100522.00;146606;574;45021;-70
2022/08/17 05:44:31;;;;;;;;;12.00;9.25;;;;;29.70;50.68;100526.97;146600;582;46012;-70
2022/08/17 05:47:29;;;;;;;;;11.25;10.00;;;;;29.82;49.75;100531.06;146603;577;46010;-71
2022/08/17 05:50:30;;;;;;;;;10.50;8.75;;;;;29.90;50.20;100531.69;146603;564;45912;-70
2022/08/17 05:53:35;;;;;;;;;12.50;10.25;;;;;29.95;49.54;100523.53;146605;596;45029;-70
2022/08/17 05:57:11;;;;;;;;;11.50;10.75;;;;;29.11;50.32;100370.28;146603;702;45912;-70
2022/08/17 06:00:26;;;;;;;;;8.75;8.00;;;;;30.25;48.43;100527.03;146605;597;46014;-69
2022/08/17 06:04:04;;;;;;;;;7.00;7.00;;;;;29.55;45.58;100378.69;146603;692;45912;-69
2022/08/17 06:07:24;;;;;;;;;8.00;7.00;;;;;30.50;48.27;100530.66;146605;578;46012;-69
2022/08/17 06:11:05;;;;;;;;;9.25;9.25;;;;;29.80;45.70;100377.91;146631;612;45912;-68
2022/08/17 06:14:42;;;;;;;;;;;;;;;;;;;;;
2022/08/17 06:18:17;;;;;;;;;9.75;8.75;;;;;30.09;47.60;100379.56;146631;569;45014;-69
2022/08/17 06:21:22;;;;;;;;;5.75;5.00;;;;;31.17;44.53;100530.06;146630;652;45010;-69
2022/08/17 06:24:45;;;;;;;;;;;;;;;;;;;;;
2022/08/17 06:28:08;;;;;;;;;5.33;5.33;;;;;31.57;44.59;100528.56;146634;574;45009;-70
2022/08/17 06:31:07;;;;;;;;;7.67;6.00;;;;;31.70;43.21;100520.94;146630;668;45912;-70
2022/08/17 06:34:13;;;;;;;;;7.00;6.00;;;;;31.88;43.28;100525.56;146631;583;45011;-70
2022/08/17 06:37:53;;;;;;;;;8.00;7.00;;;;;32.09;44.35;100518.50;146629;573;45912;-71
2022/08/17 06:41:48;;;;;;;;;5.67;5.67;;;;;32.32;43.52;100524.69;146635;580;45010;-68
2022/08/17 06:44:55;;;;;;;;;6.00;6.00;;;;;32.42;41.24;100521.53;146626;570;45939;-69
2022/08/17 06:48:29;;;;;;;;;6.00;6.00;;;;;32.46;43.55;100518.75;146635;571;45010;-70
2022/08/17 06:51:36;;;;;;;;;6.00;6.00;;;;;32.57;42.13;100520.06;146632;566;45012;-70
2022/08/17 06:55:02;;;;;;;;;6.33;5.00;;;;;32.70;41.71;100520.38;146633;638;44020;-69
2022/08/17 06:58:08;;;;;;;;;5.33;5.33;;;;;32.80;41.39;100521.72;146631;647;44017;-69
2022/08/17 07:01:25;;;;;;;;;6.67;6.33;;;;;32.88;41.03;100522.25;146632;594;44020;-71
2022/08/17 07:04:41;;;;;;;;;6.00;6.00;;;;;32.18;42.05;100378.63;146628;577;45915;-69
2022/08/17 07:10:58;;;;;;;;;19.25;15.75;;;;;33.15;40.84;100521.09;146602;691;45910;-69
2022/08/17 07:14:55;;;;;;;;;25.75;24.00;;;;;32.40;42.53;100374.94;146606;652;45021;-70
2022/08/17 07:17:51;;;;;;;;;10.25;9.00;;;;;33.40;39.88;100510.09;146601;651;46013;-68
2022/08/17 07:21:01;;;;;;;;;17.00;17.00;;;;;33.59;40.35;100518.22;146606;728;45028;-68
2022/08/17 07:24:50;;;;;;;;;;;;;;;;;;;;;
2022/08/17 07:27:52;;;;;;;;;10.00;10.00;;;;;33.71;38.38;100521.19;146603;574;45051;-68
2022/08/17 07:30:57;;;;;;;;;49.50;37.50;;;;;33.72;39.59;100520.22;146602;582;45912;-69
2022/08/17 07:34:14;;;;;;;;;44.25;34.50;;;;;33.80;39.81;100519.84;146604;587;46010;-68
2022/08/17 07:37:13;;;;;;;;;47.75;38.00;;;;;33.96;39.07;100520.00;146601;576;45911;-69
2022/08/17 07:40:28;;;;;;;;;22.25;20.00;;;;;34.16;39.94;100514.50;146606;588;46010;-68
2022/08/17 07:43:33;;;;;;;;;9.50;8.50;;;;;34.17;38.50;100520.75;146602;636;45909;-69
2022/08/17 07:50:32;;;;;;;;;8.75;7.75;;;;;33.60;40.74;100523.50;146603;615;45910;-67
2022/08/17 07:53:48;;;;;;;;;;;;;;;;;;;;;
2022/08/17 07:57:15;;;;;;;;;12.50;9.25;;;;;33.71;39.47;100520.28;146603;580;45910;-68
2022/08/17 08:00:43;;;;;;;;;8.00;8.00;;;;;33.73;41.10;100518.41;146604;585;45049;-69
2022/08/17 08:04:01;;;;;;;;;6.00;6.00;;;;;33.70;36.69;100515.88;146601;673;46014;-68
2022/08/17 08:07:06;;;;;;;;;9.50;9.00;;;;;33.65;39.24;100509.84;146606;563;46010;-67
2022/08/17 08:10:29;;;;;;;;;7.50;7.50;;;;;33.55;38.95;100501.34;146603;705;46016;-67
2022/08/17 08:13:45;;;;;;;;;9.75;8.00;;;;;32.65;39.78;100364.03;146606;728;45021;-67
2022/08/17 08:16:47;;;;;;;;;8.50;6.00;;;;;33.49;38.48;100504.28;146603;573;45912;-70
2022/08/17 08:19:40;;;;;;;;;8.25;7.25;;;;;33.50;36.61;100500.72;146606;622;45021;-70
2022/08/17 08:22:57;;;;;;;;;10.00;9.00;;;;;33.45;38.86;100490.12;146601;702;46016;-69
2022/08/17 08:26:27;;;;;;;;;8.33;8.00;;;;;32.32;35.51;100348.47;146607;565;45022;-69
2022/08/17 08:30:06;;;;;;;;;7.50;7.00;;;;;33.15;40.24;100495.13;146597;622;46012;-69
2022/08/17 08:33:24;;;;;;;;;5.50;5.25;;;;;33.29;39.87;100503.41;146603;566;46011;-69
2022/08/17 08:36:53;;;;;;;;;7.67;6.67;;;;;33.43;36.96;100508.16;146604;563;45910;-69
2022/08/17 08:40:09;;;;;;;;;9.00;6.75;;;;;33.44;39.15;100504.50;146606;566;45021;-69
2022/08/17 08:43:45;;;;;;;;;10.00;8.75;;;;;33.58;39.62;100501.19;146602;665;45910;-69
2022/08/17 08:46:53;;;;;;;;;8.67;7.33;;;;;33.77;38.55;100499.38;146608;614;45020;-69
2022/08/17 08:50:14;;;;;;;;;5.75;5.75;;;;;33.05;39.19;100360.34;146603;588;45913;-69
2022/08/17 08:54:11;;;;;;;;;6.25;5.75;;;;;33.18;37.80;100362.44;146610;574;45020;-70
2022/08/17 08:57:39;;;;;;;;;5.50;5.50;;;;;34.00;35.65;100497.38;146603;587;45912;-67
2022/08/17 09:00:48;;;;;;;;;7.25;6.25;;;;;33.94;35.24;100489.59;146608;594;45020;-69
2022/08/17 09:04:35;;;;;;;;;10.50;7.00;;;;;32.87;37.73;100347.78;146602;564;45912;-68
2022/08/17 09:08:14;;;;;;;;;6.00;6.00;;;;;32.80;35.55;100360.59;146604;569;45020;-70
2022/08/17 09:11:45;;;;;;;;;10.50;7.00;;;;;33.54;37.82;100484.34;146603;623;45913;-68
2022/08/17 09:15:08;;;;;;;;;7.50;7.00;;;;;33.61;37.68;100487.59;146606;635;45020;-69
2022/08/17 09:18:42;;;;;;;;;8.25;8.25;;;;;33.79;39.01;100489.41;146603;578;45910;-68
2022/08/17 09:21:57;;;;;;;;;6.00;5.50;;;;;33.09;34.31;100353.03;146607;593;45020;-70
2022/08/17 09:25:22;;;;;;;;;6.50;6.00;;;;;33.83;37.72;100479.34;146601;690;46016;-69
2022/08/17 09:28:36;;;;;;;;;4.75;4.75;;;;;33.98;38.37;100481.28;146607;576;45020;-71
2022/08/17 09:31:38;;;;;;;;;6.00;5.75;;;;;34.24;37.12;100476.47;146602;586;46012;-72
2022/08/17 09:34:51;;;;;;;;;7.00;5.75;;;;;34.58;36.72;100461.25;146605;625;45021;-73
2022/08/17 09:38:22;;;;;;;;;7.25;7.25;;;;;34.85;37.19;100475.94;146602;682;46912;-72
2022/08/17 09:41:58;;;;;;;;;6.75;6.75;;;;;34.26;35.32;100340.00;146605;583;46010;-74
2022/08/17 09:45:01;;;;;;;;;5.75;5.75;;;;;35.11;35.35;100474.59;146603;709;45911;-73
2022/08/17 09:48:35;;;;;;;;;6.25;5.75;;;;;35.10;34.29;100472.81;146605;677;45916;-72
2022/08/17 09:51:56;;;;;;;;;8.25;8.25;;;;;35.20;35.19;100475.88;146603;721;45910;-75
2022/08/17 09:54:58;;;;;;;;;7.25;6.25;;;;;35.07;34.52;100474.81;146604;690;47021;-72
2022/08/17 09:58:36;;;;;;;;;8.25;6.00;;;;;34.84;36.61;100471.53;146603;607;45912;-71
2022/08/17 10:01:54;;;;;;;;;6.50;5.50;;;;;34.82;37.04;100468.03;146606;600;45020;-72
2022/08/17 10:05:17;;;;;;;;;6.75;6.75;;;;;34.97;37.23;100465.47;146603;589;45913;-73
2022/08/17 10:08:51;;;;;;;;;8.75;6.00;;;;;35.08;35.65;100457.69;146604;571;47010;-73
2022/08/17 10:12:24;;;;;;;;;7.75;6.50;;;;;35.22;36.98;100459.62;146602;685;46012;-72
2022/08/17 10:15:59;;;;;;;;;8.00;5.75;;;;;35.22;34.98;100451.56;146605;675;45044;-72
2022/08/17 10:19:12;;;;;;;;;7.50;6.75;;;;;35.22;36.64;100448.84;146601;569;46012;-72
2022/08/17 10:26:11;;;;;;;;;8.00;6.25;;;;;35.25;36.46;100448.69;146602;588;46014;-73
2022/08/17 10:29:46;;;;;;;;;7.00;6.75;;;;;34.39;37.17;100324.03;146604;646;45020;-72
2022/08/17 10:32:54;;;;;;;;;7.25;6.75;;;;;35.05;36.69;100452.47;146601;572;46012;-73
2022/08/17 10:36:16;;;;;;;;;5.25;5.25;;;;;34.98;37.95;100453.75;146606;661;45033;-72
2022/08/17 10:39:39;;;;;;;;;8.00;6.00;;;;;34.09;37.85;100314.00;146599;569;45912;-73
2022/08/17 10:42:54;;;;;;;;;5.75;5.75;;;;;34.46;37.11;100444.78;146604;697;46012;-74
2022/08/17 10:46:36;;;;;;;;;8.00;5.00;;;;;34.21;36.38;100439.81;146601;617;46016;-71
2022/08/17 10:49:46;;;;;;;;;7.25;5.50;;;;;34.06;34.00;100445.97;146602;647;46010;-74
2022/08/17 10:52:57;;;;;;;;;5.75;4.25;;;;;33.82;32.73;100437.28;146603;569;45912;-74
2022/08/17 10:56:38;;;;;;;;;7.50;6.50;;;;;33.73;34.55;100446.66;146608;591;45021;-72
2022/08/17 11:00:09;;;;;;;;;6.75;4.75;;;;;32.90;37.35;100296.62;146601;630;46012;-70
2022/08/17 11:03:23;;;;;;;;;6.50;5.00;;;;;33.89;34.48;100444.09;146610;594;45021;-73
2022/08/17 11:07:00;;;;;;;;;7.00;5.75;;;;;33.21;33.65;100304.09;146603;573;45912;-72
2022/08/17 11:10:47;;;;;;;;;7.50;4.75;;;;;34.02;35.03;100439.88;146632;666;45010;-73
2022/08/17 11:14:15;;;;;;;;;4.50;4.50;;;;;34.06;33.48;100451.34;146628;596;45910;-71
2022/08/17 11:17:54;;;;;;;;;8.00;6.00;;;;;33.29;34.49;100295.63;146633;652;45010;-72
2022/08/17 11:21:43;;;;;;;;;5.00;4.00;;;;;34.28;36.18;100439.50;146629;598;45912;-72
2022/08/17 11:24:52;;;;;;;;;6.75;5.75;;;;;34.51;33.73;100436.44;146633;630;45010;-72
2022/08/17 11:27:54;;;;;;;;;5.75;5.25;;;;;34.57;33.96;100424.53;146630;677;45912;-71
2022/08/17 11:31:23;;;;;;;;;7.75;5.75;;;;;34.78;34.71;100427.91;146633;613;44021;-72
2022/08/17 11:34:53;;;;;;;;;5.00;4.25;;;;;34.11;32.07;100284.28;146620;582;45914;-73
2022/08/17 11:38:25;;;;;;;;;4.75;3.75;;;;;34.07;33.23;100294.34;146636;584;44020;-75
2022/08/17 11:42:06;;;;;;;;;4.00;3.00;;;;;33.89;33.44;100296.16;146631;565;44913;-72
2022/08/17 11:45:39;;;;;;;;;8.00;6.00;;;;;33.80;32.90;100285.88;146633;624;45014;-76
2022/08/17 11:53:00;;;;;;;;;5.25;4.25;;;;;34.91;34.26;100426.25;146635;615;44020;-75
2022/08/17 11:56:39;;;;;;;;;5.25;5.00;;;;;35.05;34.61;100420.13;146628;669;45914;-74
2022/08/17 12:00:04;;;;;;;;;3.75;3.75;;;;;34.32;34.58;100287.66;146624;616;45020;-75
2022/08/17 12:03:47;;;;;;;;;4.25;4.25;;;;;34.48;34.75;100292.09;146632;570;44912;-71
2022/08/17 12:07:24;;;;;;;;;5.50;5.00;;;;;34.57;34.73;100279.12;146632;692;44020;-70
2022/08/17 12:10:30;;;;;;;;;;;;;;;;;;;;;
2022/08/17 12:13:25;;;;;;;;;5.00;5.00;;;;;35.66;33.14;100419.38;146630;582;44914;-75
2022/08/17 12:16:29;;;;;;;;;0.75;0.00;;;;;35.72;32.47;100415.47;146626;569;45912;-73
2022/08/17 12:19:28;;;;;;;;;6.50;5.00;;;;;35.79;32.60;100412.31;146632;569;45010;-73
2022/08/17 12:22:56;;;;;;;;;5.25;5.00;;;;;35.92;32.79;100412.47;146628;613;44912;-74
2022/08/17 12:26:30;;;;;;;;;5.00;5.00;;;;;36.05;32.22;100401.84;146630;697;45014;-74
2022/08/17 12:29:23;;;;;;;;;4.00;4.00;;;;;36.11;31.28;100406.00;146628;581;45912;-75
2022/08/17 12:32:25;;;;;;;;;4.25;4.00;;;;;36.00;32.31;100402.09;146631;604;45917;-74
2022/08/17 12:35:38;;;;;;;;;4.25;4.25;;;;;35.94;32.80;100405.16;146625;722;45912;-74
2022/08/17 12:38:41;;;;;;;;;3.50;3.50;;;;;36.05;31.77;100397.31;146631;592;45010;-74
2022/08/17 12:41:51;;;;;;;;;6.75;6.00;;;;;36.25;32.35;100404.19;146627;630;45912;-74
2022/08/17 12:44:51;;;;;;;;;5.50;5.00;;;;;36.44;31.61;100397.66;146632;618;45011;-75
2022/08/17 12:47:51;;;;;;;;;2.75;2.75;;;;;36.63;32.00;100387.47;146630;740;45912;-73
2022/08/17 12:51:01;;;;;;;;;3.75;3.75;;;;;36.79;30.41;100386.50;146633;565;44020;-76
2022/08/17 12:54:05;;;;;;;;;5.50;5.50;;;;;36.89;29.93;100372.34;146629;641;45012;-74
2022/08/17 12:57:04;;;;;;;;;5.75;5.75;;;;;36.88;30.23;100378.69;146633;598;45010;-74
2022/08/17 13:00:43;;;;;;;;;4.50;4.50;;;;;36.82;29.23;100378.22;146632;637;45012;-73
2022/08/17 13:03:50;;;;;;;;;3.50;3.50;;;;;36.81;29.23;100390.00;146632;569;45010;-74
2022/08/17 13:06:57;;;;;;;;;5.50;5.25;;;;;36.88;30.31;100375.97;146626;693;46010;-73
2022/08/17 13:09:59;;;;;;;;;2.50;2.50;;;;;36.96;30.59;100379.06;146628;730;45021;-74
2022/08/17 13:13:04;;;;;;;;;4.50;3.75;;;;;37.05;28.26;100379.50;146632;706;45012;-73
2022/08/17 13:16:10;;;;;;;;;3.00;3.00;;;;;37.07;27.63;100378.41;146629;638;46021;-73
2022/08/17 13:19:21;;;;;;;;;2.25;2.25;;;;;37.05;28.99;100377.66;146631;690;44914;-76
2022/08/17 13:22:24;;;;;;;;;4.50;3.50;;;;;36.99;27.14;100367.25;146632;590;44021;-76
2022/08/17 13:25:22;;;;;;;;;6.00;4.00;;;;;36.92;29.01;100376.69;146628;639;45913;-75
2022/08/17 13:28:37;;;;;;;;;5.00;4.00;;;;;36.93;29.58;100376.56;146632;569;44020;-75
2022/08/17 13:31:54;;;;;;;;;3.75;3.75;;;;;36.97;31.22;100377.22;146630;616;45012;-75
2022/08/17 13:34:59;;;;;;;;;3.50;3.50;;;;;36.95;29.26;100374.66;146631;678;45010;-75
2022/08/17 13:38:55;;;;;;;;;5.00;4.00;;;;;36.11;28.11;100233.25;146631;583;44912;-75
2022/08/17 13:41:51;;;;;;;;;2.50;2.50;;;;;36.83;26.70;100377.28;146632;633;45014;-74
2022/08/17 13:44:54;;;;;;;;;2.00;2.00;;;;;35.99;27.71;100246.56;146627;698;45916;-76
2022/08/17 13:47:46;;;;;;;;;4.75;4.75;;;;;36.70;27.22;100382.56;146632;613;44914;-76
2022/08/17 13:50:55;;;;;;;;;4.25;3.00;;;;;36.66;28.39;100387.28;146628;641;45914;-76
2022/08/17 13:53:58;;;;;;;;;1.25;1.25;;;;;36.65;29.21;100382.00;146635;656;44021;-75
2022/08/17 13:57:02;;;;;;;;;4.25;4.25;;;;;36.65;28.97;100390.09;146629;691;45912;-73
2022/08/17 14:00:18;;;;;;;;;4.25;3.00;;;;;36.63;27.62;100382.09;146634;605;45010;-76
2022/08/17 14:03:14;;;;;;;;;2.50;2.50;;;;;36.64;27.24;100381.12;146630;679;45012;-73
2022/08/17 14:06:18;;;;;;;;;4.25;4.25;;;;;36.62;27.39;100380.34;146631;630;44914;-72
2022/08/17 14:09:15;;;;;;;;;3.00;3.00;;;;;36.56;27.90;100375.34;146608;608;46016;-72
2022/08/17 14:12:18;;;;;;;;;0.25;0.25;;;;;36.51;28.29;100381.03;146607;609;45020;-73
2022/08/17 14:15:24;;;;;;;;;3.50;3.50;;;;;36.46;26.67;100374.16;146603;672;45915;-78
2022/08/17 14:18:18;;;;;;;;;4.00;4.00;;;;;36.42;28.21;100372.59;146606;690;46010;-76
2022/08/17 14:21:27;;;;;;;;;5.25;5.25;;;;;36.38;29.71;100382.72;146603;564;45915;-77
2022/08/17 14:24:35;;;;;;;;;5.00;5.00;;;;;36.37;28.54;100369.31;146607;705;45021;-76
2022/08/17 14:27:33;;;;;;;;;4.75;4.00;;;;;36.39;26.31;100372.78;146601;573;46014;-75
2022/08/17 14:30:34;;;;;;;;;4.50;4.00;;;;;36.42;27.81;100372.59;146606;716;46010;-77
2022/08/17 14:33:33;;;;;;;;;4.75;3.00;;;;;36.43;27.01;100355.44;146603;590;45912;-75
2022/08/17 14:36:33;;;;;;;;;4.00;3.25;;;;;36.39;28.75;100361.97;146605;615;45021;-75
2022/08/17 14:39:39;;;;;;;;;4.75;4.75;;;;;35.70;28.96;100242.94;146602;575;45912;-75
2022/08/17 14:42:38;;;;;;;;;4.00;2.00;;;;;36.35;27.67;100368.53;146606;563;46010;-74
2022/08/17 14:45:40;;;;;;;;;2.00;2.00;;;;;36.28;28.02;100366.22;146603;720;45913;-74
2022/08/17 14:48:37;;;;;;;;;2.75;2.75;;;;;36.23;26.03;100362.94;146607;566;46010;-75
2022/08/17 14:51:44;;;;;;;;;;;;;;;;;;;;;
2022/08/17 14:54:50;;;;;;;;;1.25;1.25;;;;;36.12;25.49;100357.34;146606;605;46010;-74
2022/08/17 14:57:46;;;;;;;;;2.75;2.75;;;;;36.08;25.23;100362.06;146603;721;45912;-73
2022/08/17 15:00:49;;;;;;;;;2.25;2.25;;;;;36.07;24.88;100359.44;146606;633;45021;-76
2022/08/17 15:03:49;;;;;;;;;2.50;2.00;;;;;36.06;26.86;100363.09;146601;691;46012;-73
2022/08/17 15:06:42;;;;;;;;;3.50;2.00;;;;;36.03;24.23;100360.59;146604;616;46010;-74
2022/08/17 15:09:37;;;;;;;;;2.75;1.75;;;;;36.02;23.44;100351.63;146630;695;45912;-74
2022/08/17 15:12:38;;;;;;;;;3.25;2.00;;;;;36.03;24.53;100347.09;146632;645;45020;-75
2022/08/17 15:15:32;;;;;;;;;2.00;2.00;;;;;35.99;24.94;100349.09;146630;598;45913;-74
2022/08/17 15:18:38;;;;;;;;;0.00;0.00;;;;;35.93;23.74;100349.44;146633;667;44020;-76
2022/08/17 15:21:37;;;;;;;;;1.75;1.75;;;;;35.87;24.75;100346.25;146630;690;45913;-76
2022/08/17 15:24:32;;;;;;;;;4.00;3.25;;;;;35.79;24.47;100349.41;146633;610;44020;-75
2022/08/17 15:27:27;;;;;;;;;2.00;2.00;;;;;35.73;23.23;100358.72;146630;708;45914;-76
2022/08/17 15:30:29;;;;;;;;;3.50;3.00;;;;;35.67;23.96;100360.91;146633;575;45014;-75